createdAt,value
2022-11-19T00:04:58.544Z,73.3
2022-11-19T00:10:34.467Z,73.1
2022-11-19T00:16:09.321Z,73
2022-11-19T00:22:29.335Z,72.8
2022-11-19T00:28:12.246Z,72.1
2022-11-19T00:33:47.400Z,72.3
2022-11-19T00:39:28.471Z,72.4
2022-11-19T00:45:07.571Z,72.4
2022-11-19T00:50:42.927Z,72.3
2022-11-19T00:56:18.069Z,72.1
2022-11-19T01:01:53.960Z,72.3
2022-11-19T01:07:29.163Z,72
2022-11-19T01:13:05.841Z,72
2022-11-19T01:18:41.635Z,72
2022-11-19T01:24:17.120Z,72.2
2022-11-19T01:30:12.999Z,72.6
2022-11-19T01:35:57.179Z,72.1
2022-11-19T01:41:35.107Z,71.5
2022-11-19T01:47:17.354Z,71.7
2022-11-19T01:53:14.930Z,71.4
2022-11-19T01:58:51.059Z,71.3
2022-11-19T02:04:35.185Z,71.3
2022-11-19T02:10:10.225Z,72.1
2022-11-19T02:15:53.960Z,72.3
2022-11-19T02:21:30.290Z,72
2022-11-19T02:27:05.348Z,72.3
2022-11-19T02:32:40.315Z,72.2
2022-11-19T02:38:15.913Z,72.2
2022-11-19T02:43:51.842Z,72
2022-11-19T02:49:27.041Z,72.3
2022-11-19T02:55:02.469Z,72.6
2022-11-19T03:00:41.428Z,72.5
2022-11-19T03:06:16.581Z,72.6
2022-11-19T03:11:52.027Z,72.6
2022-11-19T03:17:28.371Z,72.4
2022-11-19T03:23:04.229Z,72.5
2022-11-19T03:28:39.109Z,72.4
2022-11-19T03:34:15.782Z,72.3
2022-11-19T03:39:53.927Z,72.3
2022-11-19T03:45:29.403Z,72.5
2022-11-19T03:51:04.542Z,72.2
2022-11-19T03:56:52.685Z,71.9
2022-11-19T04:02:37.044Z,71.7
2022-11-19T04:08:23.370Z,71.3
2022-11-19T04:14:35.215Z,71.2
2022-11-19T04:20:31.649Z,71.1
2022-11-19T04:26:20.967Z,71.2
2022-11-19T04:32:12.627Z,71.2
2022-11-19T04:37:51.115Z,71.1
2022-11-19T04:43:26.097Z,71.3
2022-11-19T04:49:03.667Z,71.3
2022-11-19T04:54:38.917Z,71.5
2022-11-19T05:00:15.279Z,71.4
2022-11-19T05:05:50.325Z,71.9
2022-11-19T05:11:33.934Z,71.9
2022-11-19T05:17:09.367Z,71.9
2022-11-19T05:23:55.188Z,72
2022-11-19T05:29:37.728Z,72.1
2022-11-19T05:35:58.936Z,71.9
2022-11-19T05:41:34.269Z,71.8
2022-11-19T05:47:09.611Z,71.5
2022-11-19T05:52:46.527Z,71.3
2022-11-19T05:58:22.652Z,71
2022-11-19T06:03:57.959Z,71
2022-11-19T06:09:33.179Z,70.9
2022-11-19T06:15:08.274Z,70.7
2022-11-19T06:20:43.066Z,70.9
2022-11-19T06:26:19.087Z,70.7
2022-11-19T06:31:54.127Z,70.5
2022-11-19T06:37:30.196Z,69.6
2022-11-19T06:43:05.499Z,74.7
2022-11-19T06:49:20.063Z,76.3
2022-11-19T06:54:54.291Z,77.1
2022-11-19T07:00:31.930Z,77.8
2022-11-19T07:06:06.781Z,78.5
2022-11-19T07:12:01.008Z,78.8
2022-11-19T07:17:35.718Z,78.5
2022-11-19T07:23:16.847Z,78.4
2022-11-19T07:28:52.019Z,79.3
2022-11-19T07:34:26.893Z,77.4
2022-11-19T07:40:01.891Z,77.7
2022-11-19T07:45:42.379Z,77.2
2022-11-19T07:51:17.892Z,77.7
2022-11-19T07:57:14.729Z,76.4
2022-11-19T08:03:06.002Z,76
2022-11-19T08:09:01.414Z,76.6
2022-11-19T08:14:36.268Z,77.9
2022-11-19T08:20:16.301Z,76.2
2022-11-19T08:25:52.736Z,76.9
2022-11-19T08:31:36.950Z,75.4
2022-11-19T08:37:16.191Z,75.7
2022-11-19T08:42:51.775Z,74.2
2022-11-19T08:48:48.900Z,73
2022-11-19T08:54:22.458Z,72.9
2022-11-19T09:00:27.630Z,72.6
2022-11-19T09:06:04.274Z,73.6
2022-11-19T09:12:00.113Z,72
2022-11-19T09:17:37.873Z,72.8
2022-11-19T09:23:21.956Z,70.9
2022-11-19T09:29:00.100Z,72
2022-11-19T09:34:35.318Z,70
2022-11-19T09:40:19.459Z,71.5
2022-11-19T09:46:19.395Z,68.9
2022-11-19T09:51:52.822Z,69.9
2022-11-19T09:57:28.419Z,68.4
2022-11-19T10:03:07.866Z,69.9
2022-11-19T10:08:43.936Z,68.5
2022-11-19T10:14:19.963Z,65.9
2022-11-19T10:19:57.467Z,67.4
2022-11-19T10:25:32.409Z,68.6
2022-11-19T10:31:13.050Z,69.7
2022-11-19T10:36:56.803Z,68.1
2022-11-19T10:42:32.016Z,68.1
2022-11-19T10:48:29.106Z,71.2
2022-11-19T10:54:02.059Z,68.4
2022-11-19T10:59:39.408Z,64.1
2022-11-19T11:05:35.183Z,66.4
2022-11-19T11:11:12.606Z,67.6
2022-11-19T11:16:48.412Z,67.3
2022-11-19T11:22:23.418Z,66.4
2022-11-19T11:27:58.996Z,65.9
2022-11-19T11:33:37.852Z,69.6
2022-11-19T11:39:15.478Z,67.4
2022-11-19T11:44:50.626Z,68.5
2022-11-19T11:50:25.678Z,69.2
2022-11-19T11:56:21.447Z,70.2
2022-11-19T12:02:00.698Z,67.4
2022-11-19T12:07:36.816Z,63.7
2022-11-19T12:13:12.723Z,62.3
2022-11-19T12:18:48.025Z,63.7
2022-11-19T12:24:23.017Z,61.9
2022-11-19T12:29:58.462Z,61.4
2022-11-19T12:35:33.689Z,62.3
2022-11-19T12:41:09.255Z,60.1
2022-11-19T12:47:06.034Z,59.5
2022-11-19T12:52:39.155Z,59.5
2022-11-19T12:58:14.151Z,58.6
2022-11-19T13:03:49.847Z,57.7
2022-11-19T13:09:24.707Z,60
2022-11-19T13:14:59.472Z,57.8
2022-11-19T13:20:34.526Z,60.9
2022-11-19T13:26:09.264Z,63.2
2022-11-19T13:31:44.069Z,64.9
2022-11-19T13:37:20.929Z,65.9
2022-11-19T13:43:31.864Z,66.4
2022-11-19T13:49:08.453Z,64.7
2022-11-19T13:54:49.898Z,64.4
2022-11-19T14:00:24.885Z,64.1
2022-11-19T14:06:00.865Z,65
2022-11-19T14:11:35.888Z,65.6
2022-11-19T14:17:11.380Z,66.2
2022-11-19T14:22:46.574Z,62.9
2022-11-19T14:28:21.984Z,63.7
2022-11-19T14:33:57.088Z,64.4
2022-11-19T14:39:38.579Z,62.7
2022-11-19T14:45:14.025Z,64.3
2022-11-19T14:50:49.813Z,65.8
2022-11-19T14:56:25.079Z,63.7
2022-11-19T15:02:00.196Z,65.1
2022-11-19T15:07:35.801Z,64.2
2022-11-19T15:13:12.611Z,65.4
2022-11-19T15:18:47.593Z,66.8
2022-11-19T15:24:22.747Z,68
2022-11-19T15:29:59.935Z,68.2
2022-11-19T15:35:34.891Z,69.9
2022-11-19T15:41:10.086Z,70.9
2022-11-19T15:46:45.521Z,70.2
2022-11-19T15:52:20.267Z,70.1
2022-11-19T15:57:57.113Z,72
2022-11-19T16:03:54.691Z,70.6
2022-11-19T16:09:29.570Z,72.6
2022-11-19T16:15:04.435Z,71.5
2022-11-19T16:20:40.360Z,71.5
2022-11-19T16:26:15.938Z,73.4
2022-11-19T16:31:51.177Z,73.2
2022-11-19T16:37:26.278Z,73.9
2022-11-19T16:43:02.018Z,74.3
2022-11-19T16:48:59.090Z,73.8
2022-11-19T16:54:32.724Z,73.8
2022-11-19T17:00:08.446Z,73.8
2022-11-19T17:05:43.096Z,74
2022-11-19T17:11:19.169Z,75.9
2022-11-19T17:16:54.552Z,77
2022-11-19T17:22:32.052Z,73.5
2022-11-19T17:28:07.379Z,72.5
2022-11-19T17:33:43.797Z,72.2
2022-11-19T17:39:25.468Z,72
2022-11-19T17:45:10.725Z,71.7
2022-11-19T17:50:46.401Z,71.4
2022-11-19T17:56:23.773Z,71.2
2022-11-19T18:02:00.278Z,71.1
2022-11-19T18:07:36.652Z,70.9
2022-11-19T18:13:14.292Z,70.7
2022-11-19T18:18:49.650Z,70.5
2022-11-19T18:24:25.817Z,70.6
2022-11-19T18:30:01.508Z,70.5
2022-11-19T18:35:36.441Z,70.6
2022-11-19T18:41:13.739Z,70.7
2022-11-19T18:46:51.845Z,70.7
2022-11-19T18:52:49.857Z,70.8
2022-11-19T18:58:25.343Z,70.8
2022-11-19T19:04:02.424Z,71
2022-11-19T19:09:40.560Z,71.2
2022-11-19T19:15:15.408Z,71
2022-11-19T19:20:50.873Z,70.6
2022-11-19T19:26:26.059Z,70.9
2022-11-19T19:32:31.086Z,70.7
2022-11-19T19:38:08.328Z,70.9
2022-11-19T19:43:54.677Z,70.8
2022-11-19T19:49:39.738Z,70.6
2022-11-19T19:55:20.923Z,70.6
2022-11-19T20:00:55.712Z,70.4
2022-11-19T20:06:31.136Z,70.3
2022-11-19T20:12:06.337Z,70.1
2022-11-19T20:17:41.777Z,70.2
2022-11-19T20:23:16.654Z,70.2
2022-11-19T20:28:51.639Z,70.2
2022-11-19T20:34:26.969Z,70.3
2022-11-19T20:40:03.583Z,70.2
2022-11-19T20:45:40.311Z,70.3
2022-11-19T20:51:16.133Z,70.3
2022-11-19T20:56:52.074Z,70.5
2022-11-19T21:02:27.473Z,70.6
2022-11-19T21:08:03.422Z,70.6
2022-11-19T21:14:15.495Z,70.7
2022-11-19T21:20:02.770Z,70.8
2022-11-19T21:26:00.099Z,70.8
2022-11-19T21:31:42.269Z,70.8
2022-11-19T21:37:17.617Z,70.9
2022-11-19T21:42:52.883Z,70.9
2022-11-19T21:48:37.431Z,70.9
2022-11-19T21:54:12.882Z,71.1
2022-11-19T21:59:49.463Z,71.4
2022-11-19T22:05:31.420Z,71.5
2022-11-19T22:11:06.409Z,71.5
2022-11-19T22:16:56.607Z,71.6
2022-11-19T22:22:31.693Z,71.7
2022-11-19T22:28:06.947Z,71.7
2022-11-19T22:33:42.994Z,71.7
2022-11-19T22:39:18.759Z,71.8
2022-11-19T22:45:15.068Z,71.9
2022-11-19T22:50:50.290Z,71.9
2022-11-19T22:56:26.971Z,71.6
2022-11-19T23:02:02.188Z,71.5
2022-11-19T23:07:37.646Z,71.5
2022-11-19T23:13:13.278Z,71.7
2022-11-19T23:18:57.181Z,71.6
2022-11-19T23:24:35.268Z,71.8
2022-11-19T23:30:11.781Z,71.8
2022-11-19T23:35:47.847Z,71.8
2022-11-19T23:41:23.029Z,71.7
2022-11-19T23:47:20.263Z,71.7
2022-11-19T23:52:54.211Z,71.7
2022-11-19T23:58:28.896Z,71.6
